Home > Products > Valid Products > MTR

000
SAUS46 KPQR 231153
MTRREO
METAR KREO 231152Z AUTO 18003KT 11/09 A2994 RMK AO1 SLP124 70007
T01110094 10128 20111 50002





000
SAUS46 KPQR 231053
MTRREO
METAR KREO 231052Z AUTO 16005KT 12/09 A2995 RMK AO1 SLP125 T01170094





000
SAUS46 KPQR 231053
MTRREO
METAR KREO 231052Z AUTO 16005KT 12/09 A2995 RMK AO1 SLP125 T01170094





000
SAUS46 KPQR 230953
MTRREO
METAR KREO 230952Z AUTO 15003KT 12/09 A2995 RMK AO1 SLP123 T01170094





000
SAUS46 KPQR 230853
MTRREO
METAR KREO 230852Z AUTO 00000KT 12/09 A2994 RMK AO1 SLP117 T01220094
51002





000
SAUS46 KPQR 230853
MTRREO
METAR KREO 230852Z AUTO 00000KT 12/09 A2994 RMK AO1 SLP117 T01220094
51002





000
SAUS46 KPQR 230753
MTRREO
METAR KREO 230752Z AUTO 14003KT 12/09 A2993 RMK AO1 SLP116 T01220094
401940078





000
SAUS46 KPQR 230653
MTRREO
METAR KREO 230652Z AUTO 12004KT 13/09 A2994 RMK AO1 SLP115 T01280094





000
SAUS46 KPQR 230553
MTRREO
METAR KREO 230552Z AUTO 08006KT 13/09 A2993 RMK AO1 SLP114 T01280094
10150 20128 51013





000
SAUS46 KPQR 230553
MTRREO
METAR KREO 230552Z AUTO 08006KT 13/09 A2993 RMK AO1 SLP114 T01280094
10150 20128 51013





000
SAUS46 KPQR 230453
MTRREO
METAR KREO 230452Z AUTO 02005KT 13/10 A2993 RMK AO1 SLP114 T01330100





000
SAUS46 KPQR 230353
MTRREO
METAR KREO 230352Z AUTO 35004KT 14/11 A2990 RMK AO1 SLP106 T01390106





000
SAUS46 KPQR 230253
MTRREO
METAR KREO 230252Z AUTO 24003KT 14/11 A2989 RMK AO1 SLP103 T01440111
55000





000
SAUS46 KPQR 230153
MTRREO
METAR KREO 230152Z AUTO 21004KT 15/10 A2988 RMK AO1 SLP098 T01500100





000
SAUS46 KPQR 230053
MTRREO
METAR KREO 230052Z AUTO 21005KT 14/10 A2987 RMK AO1 SLP104 T01440100





000
SAUS46 KPQR 230053
MTRREO
METAR KREO 230052Z AUTO 21005KT 14/10 A2987 RMK AO1 SLP104 T01440100





000
SAUS46 KPQR 222353
MTRREO
METAR KREO 222352Z AUTO 00000KT 14/09 A2989 RMK AO1 SLP109 P0002
60007 T01440094 10194 20139 53004





000
SAUS46 KPQR 222253
MTRREO
METAR KREO 222252Z AUTO 11011KT 14/08 A2988 RMK AO1 SLP106 P0002
T01440083





000
SAUS46 KPQR 222253
MTRREO
METAR KREO 222252Z AUTO 11011KT 14/08 A2988 RMK AO1 SLP106 P0002
T01440083





000
SAUS46 KPQR 222153
MTRREO
METAR KREO 222152Z AUTO 00000KT 16/07 A2988 RMK AO1 SLP103 P0003
T01560067





000
SAUS46 KPQR 222153
MTRREO
METAR KREO 222152Z AUTO 00000KT 16/07 A2988 RMK AO1 SLP103 P0003
T01560067





000
SAUS46 KPQR 222053
MTRREO
METAR KREO 222052Z AUTO 22011KT 17/07 A2987 RMK AO1 WSHFT 1943
SLP098 T01720072 56009





000
SAUS46 KPQR 222001
MTRREO
SPECI KREO 222000Z AUTO 26013KT 17/07 A2988 RMK AO1 WSHFT 1943
T01720067





000
SAUS46 KPQR 221953
MTRREO
METAR KREO 221952Z AUTO 26014KT 18/07 A2988 RMK AO1 SLP101 T01780072





000
SAUS46 KPQR 221953
MTRREO
METAR KREO 221952Z AUTO 26014KT 18/07 A2988 RMK AO1 SLP101 T01780072





000
SAUS46 KPQR 221853
MTRREO
METAR KREO 221852Z AUTO 00000KT 18/08 A2989 RMK AO1 SLP101 T01780078





000
SAUS46 KPQR 221853
MTRREO
METAR KREO 221852Z AUTO 00000KT 18/08 A2989 RMK AO1 SLP101 T01780078





000
SAUS46 KPQR 221753
MTRREO
METAR KREO 221752Z AUTO 01005KT 18/08 A2991 RMK AO1 SLP106 T01780083
10178 20078 58005





000
SAUS46 KPQR 221753
MTRREO
METAR KREO 221752Z AUTO 01005KT 18/08 A2991 RMK AO1 SLP106 T01780083
10178 20078 58005





000
SAUS46 KPQR 221653
MTRREO
METAR KREO 221652Z AUTO VRB03KT 16/08 A2992 RMK AO1 SLP112 T01610078





000
SAUS46 KPQR 221653
MTRREO
METAR KREO 221652Z AUTO VRB03KT 16/08 A2992 RMK AO1 SLP112 T01610078





000
SAUS46 KPQR 221553
MTRREO
METAR KREO 221552Z AUTO 00000KT 14/07 A2993 RMK AO1 SLP116 T01440072





000
SAUS46 KPQR 221453
MTRREO
METAR KREO 221452Z AUTO 33003KT 13/08 A2992 RMK AO1 SLP111 T01330078
53006





000
SAUS46 KPQR 221353
MTRREO
METAR KREO 221352Z AUTO 21004KT 13/07 A2992 RMK AO1 SLP106 T01280072





000
SAUS46 KPQR 221257
MTRREO
METAR KREO 221252Z AUTO 16007KT 09/06 A2991 RMK AO1 SLP107 T00890061





000
SAUS46 KPQR 221153
MTRREO
METAR KREO 221152Z AUTO 15006KT 08/06 A2990 RMK AO1 SLP108 T00830056
10122 20083 53002





000
SAUS46 KPQR 221153
MTRREO
METAR KREO 221152Z AUTO 15006KT 08/06 A2990 RMK AO1 SLP108 T00830056
10122 20083 53002





000
SAUS46 KPQR 221053
MTRREO
METAR KREO 221052Z AUTO 14006KT 09/06 A2989 RMK AO1 SLP104 T00890061





000
SAUS46 KPQR 220953
MTRREO
METAR KREO 220952Z AUTO 14007KT 09/06 A2990 RMK AO1 SLP105 T00890061





000
SAUS46 KPQR 220853
MTRREO
METAR KREO 220852Z AUTO 15007KT 10/07 A2990 RMK AO1 SLP103 T01000067
51005





000
SAUS46 KPQR 220753
MTRREO
METAR KREO 220752Z AUTO 12003KT 10/07 A2989 RMK AO1 SLP101 T01000067
402000072





000
SAUS46 KPQR 220653
MTRREO
METAR KREO 220652Z AUTO 00000KT 11/07 A2989 RMK AO1 SLP103 T01110072





000
SAUS46 KPQR 220653
MTRREO
METAR KREO 220652Z AUTO 00000KT 11/07 A2989 RMK AO1 SLP103 T01110072





000
SAUS46 KPQR 220553
MTRREO
METAR KREO 220552Z AUTO 15007KT 12/07 A2988 RMK AO1 SLP098 T01220072
10200 20122 50007





000
SAUS46 KPQR 220453
MTRREO
METAR KREO 220452Z AUTO 25008KT 13/07 A2989 RMK AO1 SLP103 T01280067





000
SAUS46 KPQR 220354
MTRREO
METAR KREO 220352Z AUTO 14016G24KT 13/07 A2987 RMK AO1 WSHFT 0257
SLP099 T01280067





000
SAUS46 KPQR 220315
MTRREO
SPECI KREO 220314Z AUTO 14019G24KT 14/07 A2986 RMK AO1 WSHFT 0257
T01390067





000
SAUS46 KPQR 220315
MTRREO
SPECI KREO 220314Z AUTO 14019G24KT 14/07 A2986 RMK AO1 WSHFT 0257
T01390067





000
SAUS46 KPQR 220253
MTRREO
METAR KREO 220252Z AUTO 08008KT 17/07 A2986 RMK AO1 SLP090 T01720067
53004





000
SAUS46 KPQR 220253
MTRREO
METAR KREO 220252Z AUTO 08008KT 17/07 A2986 RMK AO1 SLP090 T01720067
53004





000
SAUS46 KPQR 220153
MTRREO
METAR KREO 220152Z AUTO 03007KT 19/07 A2984 RMK AO1 SLP084 T01890067





000
SAUS46 KPQR 220053
MTRREO
METAR KREO 220052Z AUTO 00000KT 19/04 A2984 RMK AO1 SLP087 T01940039





000
SAUS46 KPQR 212353
MTRREO
METAR KREO 212352Z AUTO 26004KT 19/05 A2984 RMK AO1 SLP087 T01890050
10200 20161 57007





000
SAUS46 KPQR 212353
MTRREO
METAR KREO 212352Z AUTO 26004KT 19/05 A2984 RMK AO1 SLP087 T01890050
10200 20161 57007





000
SAUS46 KPQR 212253
MTRREO
METAR KREO 212252Z AUTO 30005KT 18/06 A2986 RMK AO1 SLP089 T01830061





000
SAUS46 KPQR 212253
MTRREO
METAR KREO 212252Z AUTO 30005KT 18/06 A2986 RMK AO1 SLP089 T01830061





000
SAUS46 KPQR 212154
MTRREO
METAR KREO 212152Z AUTO 26007KT 18/06 A2986 RMK AO1 WSHFT 2111
SLP092 T01830061





000
SAUS46 KPQR 212154
MTRREO
METAR KREO 212152Z AUTO 26007KT 18/06 A2986 RMK AO1 WSHFT 2111
SLP092 T01830061





000
SAUS46 KPQR 212129
MTRREO
SPECI KREO 212128Z AUTO 25012KT 19/07 A2986 RMK AO1 WSHFT 2111
T01940067





000
SAUS46 KPQR 212129
MTRREO
SPECI KREO 212128Z AUTO 25012KT 19/07 A2986 RMK AO1 WSHFT 2111
T01940067





000
SAUS46 KPQR 212053
MTRREO
METAR KREO 212052Z AUTO 17007KT 19/06 A2987 RMK AO1 SLP093 T01940061
58017





000
SAUS46 KPQR 212053
MTRREO
METAR KREO 212052Z AUTO 17007KT 19/06 A2987 RMK AO1 SLP093 T01940061
58017





000
SAUS46 KPQR 211953
MTRREO
METAR KREO 211952Z AUTO VRB05KT 19/06 A2989 RMK AO1 SLP100 T01890056





000
SAUS46 KPQR 211953
MTRREO
METAR KREO 211952Z AUTO VRB05KT 19/06 A2989 RMK AO1 SLP100 T01890056





000
SAUS46 KPQR 211853
MTRREO
METAR KREO 211852Z AUTO 00000KT 17/05 A2991 RMK AO1 SLP109 T01670050





000
SAUS46 KPQR 211853
MTRREO
METAR KREO 211852Z AUTO 00000KT 17/05 A2991 RMK AO1 SLP109 T01670050





000
SAUS46 KPQR 211758
MTRREO
METAR KREO 211752Z AUTO 00000KT 16/06 A2992 RMK AO1 SLP115 T01610061
10167 20072 58005





000
SAUS46 KPQR 211758
MTRREO
METAR KREO 211752Z AUTO 00000KT 16/06 A2992 RMK AO1 SLP115 T01610061
10167 20072 58005





000
SAUS46 KPQR 211654
MTRREO
METAR KREO 211652Z AUTO 00000KT 14/07 A2993 RMK AO1 SLP120 T01440067





000
SAUS46 KPQR 211654
MTRREO
METAR KREO 211652Z AUTO 00000KT 14/07 A2993 RMK AO1 SLP120 T01440067





000
SAUS46 KPQR 211553
MTRREO
METAR KREO 211552Z AUTO 00000KT 13/07 A2994 RMK AO1 SLP122 T01280067





000
SAUS46 KPQR 211553
MTRREO
METAR KREO 211552Z AUTO 00000KT 13/07 A2994 RMK AO1 SLP122 T01280067





000
SAUS46 KPQR 211458 COR
MTRREO
METAR KREO 211452Z AUTO 00000KT 12/07 A2994 RMK AO1 SLP122 T01170067
51004





000
SAUS46 KPQR 211458 COR
MTRREO
METAR KREO 211452Z AUTO 00000KT 12/07 A2994 RMK AO1 SLP122 T01170067
51004





000
SAUS46 KPQR 211454
MTRREO
METAR KREO 211452Z AUTO 00000KT 12/07 A2994 RMK AO1 SLP122 T01170067
51004





000
SAUS46 KPQR 211353
MTRREO
METAR KREO 211352Z AUTO 00000KT 11/07 A2993 RMK AO1 SLP118 T01060067





000
SAUS46 KPQR 211258
MTRREO
METAR KREO 211252Z AUTO 19005KT 08/06 A2993 RMK AO1 SLP123 T00780056





000
SAUS46 KPQR 211153
MTRREO
METAR KREO 211152Z AUTO 15008KT 09/06 A2993 RMK AO1 SLP118 T00890061
10111 20083 53000 $





000
SAUS46 KPQR 211153
MTRREO
METAR KREO 211152Z AUTO 15008KT 09/06 A2993 RMK AO1 SLP118 T00890061
10111 20083 53000 $





000
SAUS46 KPQR 211053
MTRREO
METAR KREO 211052Z AUTO 11006KT 11/06 A2993 RMK AO1 SLP116 T01060056
$





000
SAUS46 KPQR 211053
MTRREO
METAR KREO 211052Z AUTO 11006KT 11/06 A2993 RMK AO1 SLP116 T01060056
$





000
SAUS46 KPQR 210953
MTRREO
METAR KREO 210952Z AUTO 10006KT 09/07 A2992 RMK AO1 SLP116 T00940067
$





000
SAUS46 KPQR 210853
MTRREO
METAR KREO 210852Z AUTO 10003KT 10/07 A2992 RMK AO1 SLP118 T01000072
$





000
SAUS46 KPQR 210853
MTRREO
METAR KREO 210852Z AUTO 10003KT 10/07 A2992 RMK AO1 SLP118 T01000072
$





000
SAUS46 KPQR 210753
MTRREO
METAR KREO 210752Z AUTO 10005KT 11/07 A2993 RMK AO1 SLP118 T01060072
401720100 $





000
SAUS46 KPQR 210653
MTRREO
METAR KREO 210652Z AUTO 21003KT 11/07 A2993 RMK AO1 SLP119 T01060072
$





000
SAUS46 KPQR 210653
MTRREO
METAR KREO 210652Z AUTO 21003KT 11/07 A2993 RMK AO1 SLP119 T01060072
$





000
SAUS46 KPQR 210553
MTRREO
METAR KREO 210552Z AUTO 24006KT 11/07 A2993 RMK AO1 SLP120 T01110072
10172 20111 52010





000
SAUS46 KPQR 210553
MTRREO
METAR KREO 210552Z AUTO 24006KT 11/07 A2993 RMK AO1 SLP120 T01110072
10172 20111 52010





000
SAUS46 KPQR 210453
MTRREO
METAR KREO 210452Z AUTO 22008KT 12/07 A2992 RMK AO1 SLP118 T01220067





000
SAUS46 KPQR 210353
MTRREO
METAR KREO 210352Z AUTO 15010KT 13/07 A2990 RMK AO1 SLP109 T01330072





000
SAUS46 KPQR 210253
MTRREO
METAR KREO 210252Z AUTO 11006KT 15/08 A2989 RMK AO1 SLP106 T01500078
53003





000
SAUS46 KPQR 210153
MTRREO
METAR KREO 210152Z AUTO 08005KT 17/07 A2988 RMK AO1 SLP101 T01670067





000
SAUS46 KPQR 210153
MTRREO
METAR KREO 210152Z AUTO 08005KT 17/07 A2988 RMK AO1 SLP101 T01670067





000
SAUS46 KPQR 210053
MTRREO
METAR KREO 210052Z AUTO 06007KT 17/07 A2987 RMK AO1 SLP097 T01670072





000
SAUS46 KPQR 210053
MTRREO
METAR KREO 210052Z AUTO 06007KT 17/07 A2987 RMK AO1 SLP097 T01670072





000
SAUS46 KPQR 202353
MTRREO
METAR KREO 202352Z AUTO 04008KT 16/08 A2988 RMK AO1 SLP103 T01610078
10172 20133 58017





000
SAUS46 KPQR 202353
MTRREO
METAR KREO 202352Z AUTO 04008KT 16/08 A2988 RMK AO1 SLP103 T01610078
10172 20133 58017





000
SAUS46 KPQR 202253
MTRREO
METAR KREO 202252Z AUTO 05004KT 17/08 A2991 RMK AO1 SLP110 T01670078





000
SAUS46 KPQR 202153
MTRREO
METAR KREO 202152Z AUTO 03004KT 17/08 A2992 RMK AO1 SLP114 T01670078





000
SAUS46 KPQR 202053
MTRREO
METAR KREO 202052Z AUTO 02005KT 15/08 A2994 RMK AO1 SLP123 T01500078
56009





000
SAUS46 KPQR 201953
MTRREO
METAR KREO 201952Z AUTO 00000KT 16/07 A2995 RMK AO1 SLP124 T01610072





000
SAUS46 KPQR 201953
MTRREO
METAR KREO 201952Z AUTO 00000KT 16/07 A2995 RMK AO1 SLP124 T01610072





000
SAUS46 KPQR 201858 COR
MTRREO
METAR KREO 201852Z AUTO 10004KT 15/09 A2996 RMK AO1 SLP131 T01500089





000
SAUS46 KPQR 201858 COR
MTRREO
METAR KREO 201852Z AUTO 10004KT 15/09 A2996 RMK AO1 SLP131 T01500089





000
SAUS46 KPQR 201853
MTRREO
METAR KREO 201852Z AUTO 10004KT 15/09 A2996 RMK AO1 SLP131 T01500089





000
SAUS46 KPQR 201753
MTRREO
METAR KREO 201752Z AUTO 05006KT 13/09 A2997 RMK AO1 SLP136 T01330089
10133 20106 58001





000
SAUS46 KPQR 201753
MTRREO
METAR KREO 201752Z AUTO 05006KT 13/09 A2997 RMK AO1 SLP136 T01330089
10133 20106 58001





000
SAUS46 KPQR 201653
MTRREO
METAR KREO 201652Z AUTO 05005KT 12/08 A2997 RMK AO1 SLP136 T01220083





000
SAUS46 KPQR 201553
MTRREO
METAR KREO 201552Z AUTO 04007KT 12/09 A2998 RMK AO1 SLP136 T01220089





000
SAUS46 KPQR 201553
MTRREO
METAR KREO 201552Z AUTO 04007KT 12/09 A2998 RMK AO1 SLP136 T01220089





000
SAUS46 KPQR 201453
MTRREO
METAR KREO 201452Z AUTO 04004KT 12/09 A2997 RMK AO1 SLP135 T01170089
51004





000
SAUS46 KPQR 201453
MTRREO
METAR KREO 201452Z AUTO 04004KT 12/09 A2997 RMK AO1 SLP135 T01170089
51004





000
SAUS46 KPQR 201353
MTRREO
METAR KREO 201352Z AUTO 05003KT 11/09 A2997 RMK AO1 SLP135 T01110089





000
SAUS46 KPQR 201353
MTRREO
METAR KREO 201352Z AUTO 05003KT 11/09 A2997 RMK AO1 SLP135 T01110089





000
SAUS46 KPQR 201258
MTRREO
METAR KREO 201252Z AUTO 04004KT 11/09 A2997 RMK AO1 SLP133 T01060089





000
SAUS46 KPQR 201258
MTRREO
METAR KREO 201252Z AUTO 04004KT 11/09 A2997 RMK AO1 SLP133 T01060089





    US Dept of Commerce
    National Oceanic and Atmospheric Administration
    National Weather Service
    1325 East West Highway
    Silver Spring, MD 20910
    Page Author: NWS Internet Services Team
Disclaimer
Information Quality
Credits
Glossary
Privacy Policy
Freedom of Information Act (FOIA)
About Us
Career Opportunities